The University of Tennessee Institute of Agriculture
Tmail  /  Online@UT  /  A-Z Index

Biosystems Engineering & Soil Science


Middle Tennessee, Murfreesboro, Rutherford County, daily data

Show metric units       Show half-hour records
Date Solar rad
mJ/m2
Precip
(in)
T_raw?
(deg F)
Max Min Avg
Rel humid (%)
Max Min Avg
Avg
windspeed
(mi/hr)
Evap.
trans.
(in)
1/1/13 0.8 0.8845  36  4196  73  933--
1/2/13 1.8 036  30  3198  82  915--
1/3/13 9.2 043  25  3289  39  753--
1/4/13 10.0 045  19  3095  35  761--
1/5/13 5.3 045  21  3294  45  741--
1/6/13 8.2 050  32  4184  45  684--
1/7/13 10.2 048  19  3293  41  752--
1/8/13 9.0 061  23  3995  39  761--
1/9/13 1.4 0.7954  41  5095  73  912--
1/10/13 2.5 0.0964  52  5896  75  8940.03
1/11/13 6.0 0.2370  61  6594  64  8150.05
1/12/13 2.9 0.5068  64  6694  72  8640.03
1/13/13 1.4 0.4368  36  6093  68  8250.02
1/14/13 1.3 0.2436  28  3295  82  897--
1/15/13 0.9 0.8334  30  3297  95  966--
1/16/13 0.9 0.6436  32  3497  96  964--
1/17/13 3.3 0.0343  34  3696  60  816--
1/18/13 11.0 050  25  3594  34  752--
1/19/13 11.5 055  28  4194  33  584--
1/20/13 11.4 054  30  4289  38  623--
1/21/13 11.6 039  27  3282  30  543--
1/22/13 9.9 030  19  2561  28  454--
1/23/13 11.5 052  25  3582  35  463--
1/24/13 11.3 036  27  3293  27  565--
1/25/13 1.1 0.5141  28  3596  41  793--
1/26/13 9.6 045  28  3496  45  832--
1/27/13 3.8 052  27  3995  52  763--
1/28/13 4.4 059  46  5281  56  6850.03
1/29/13 3.5 066  54  6087  73  8050.04
1/30/13 1.6 1.2670  39  5694  59  7960.02
1/31/13 12.2 046  32  3764  36  556--
2/1/13 9.7 0.0445  16  2595  45  694--
2/2/13 6.8 0.0545  19  3093  55  773--
2/3/13 11.9 048  28  3794  37  723--
2/4/13 8.0 054  23  3894  27  663--
2/5/13 13.3 061  37  4991  35  633--
2/6/13 13.0 059  28  4295  35  712--
2/7/13 4.3 061  39  4885  48  722--
2/8/13 3.4 0.1148  36  4393  64  815--
2/9/13 14.0 055  34  4083  32  634--
2/10/13 3.2 0.5757  46  5292  37  6150.03
2/11/13 5.9 057  39  5191  36  7030.04
2/12/13 6.7 0.0352  36  4393  41  712--
2/13/13 3.4 0.1243  32  4095  76  893--
2/14/13 14.7 059  28  4297  32  743--
2/15/13 6.9 048  30  3995  42  723--
2/16/13 9.4 036  23  3172  32  534--
2/17/13 14.8 045  16  2985  27  593--
2/18/13 12.4 059  34  4750  31  406--
2/19/13 16.1 0.1750  28  4491  24  595--
2/20/13 8.3 034  23  2886  43  614--
2/21/13 9.3 0.6154  25  3695  26  624--
2/22/13 10.0 0.0155  45  5192  65  8050.06
2/23/13 14.2 052  36  4489  51  714--
2/24/13 16.8 054  28  3892  27  643--
2/25/13 12.4 063  30  4587  26  574--
2/26/13 3.2 0.1454  39  4789  60  778--
2/27/13 4.1 0.0141  37  3985  61  706--
2/28/13 4.1 039  34  3683  54  674--
3/1/13 3.1 0.0137  32  3593  66  793--
3/2/13 3.1 0.1034  30  3194  80  893--
3/3/13 16.7 041  25  3186  29  634--
3/4/13 13.0 055  27  4185  29  553--
3/5/13 1.4 0.6655  37  4992  37  735--
3/6/13 7.1 039  30  3479  56  646--
3/7/13 9.8 041  28  3381  57  735--
3/8/13 18.4 055  25  3893  23  643--
3/9/13 10.2 063  32  4887  24  543--
3/10/13 11.8 070  54  6243  26  3460.11
3/11/13 3.1 1.2066  39  5193  43  7660.03
3/12/13 19.0 055  37  4374  32  573--
3/13/13 15.7 045  28  3791  32  574--
3/14/13 16.7 0.1050  19  3592  26  632--
3/15/13 16.9 073  32  5395  30  5840.10
3/16/13 16.4 077  55  6561  33  4860.13
3/17/13 13.1 070  45  5588  40  7030.09
3/18/13 2.2 0.6363  46  5892  65  8250.03
3/19/13 19.7 054  32  4595  18  584--
3/20/13 16.3 054  28  4189  26  533--
3/21/13 21.4 043  18  3184  27  503--
3/22/13 6.3 048  28  3972  36  562--
3/23/13 8.3 0.0654  41  4692  67  823--
3/24/13 7.7 0.4661  37  4994  59  825--
3/25/13 4.3 037  32  3480  60  656--
3/26/13 5.1 0.0637  30  3492  55  763--
3/27/13 21.0 052  23  3793  31  632--
3/28/13 20.7 057  27  4193  32  642--
3/29/13 5.6 0.0455  36  4692  45  752--
3/30/13 12.2 0.2663  45  5194  44  8220.07
3/31/13 4.8 0.1659  46  5493  77  8930.04
4/1/13 20.9 063  43  5195  33  6940.12
4/2/13 9.3 048  36  4366  31  484--
4/3/13 14.5 054  37  4668  24  376--
4/4/13 3.2 0.4848  39  4493  32  782--
4/5/13 21.2 0.0264  43  5194  26  6740.12
4/6/13 19.6 072  36  5493  24  5930.12
4/7/13 18.6 072  48  6181  34  5340.13
4/8/13 17.8 077  48  6485  38  6240.13
4/9/13 10.5 081  55  6885  42  6230.09
4/10/13 21.6 084  63  7375  32  5140.18
4/11/13 6.7 1.2675  59  6793  53  6950.06
4/12/13 23.8 0.0864  43  5392  34  6640.14
4/13/13 23.3 066  41  5193  31  6230.13
4/14/13 9.8 072  41  5592  28  7030.07
4/15/13 22.7 079  55  6687  41  6530.17
4/16/13 15.6 079  63  7178  57  6840.13
4/17/13 18.8 086  64  7487  42  6740.15
4/18/13 20.0 081  66  7380  36  5860.16
4/19/13 13.5 1.0375  36  5091  48  7250.08
4/20/13 24.8 061  32  4695  27  623--
4/21/13 22.1 066  34  5093  29  632--
4/22/13 24.1 072  39  5693  26  6220.15
4/23/13 22.2 073  46  6190  39  6030.15
4/24/13 4.5 0.4264  46  5692  61  7440.04
4/25/13 25.7 064  37  5087  26  5830.14
4/26/13 13.4 0.2264  37  5093  36  7130.08
4/27/13 2.3 1.1561  50  5493  79  9030.02
4/28/13 9.4 0.8168  55  6294  63  8230.07
4/29/13 15.0 072  54  6193  45  7810.11
4/30/13 24.6 079  45  6294  34  6820.17
5/1/13 17.4 077  54  6791  44  6820.13
5/2/13 13.7 073  55  6592  50  7120.11
5/3/13 17.4 072  59  6584  49  6360.13
5/4/13 4.5 1.2863  43  4693  65  893--
5/5/13 8.0 0.2355  45  4993  70  862--
5/6/13 12.1 0.9857  48  5394  67  8720.08
5/7/13 19.1 070  43  5595  47  7920.12
5/8/13 18.6 077  50  6394  43  7420.13
5/9/13 21.9 081  54  6794  39  6920.17
5/10/13 9.5 0.3970  63  6592  70  8030.08
5/11/13 14.6 0.0170  52  6294  57  8120.11
5/12/13 26.9 063  43  5492  27  5240.16
5/13/13 26.8 070  36  5294  25  6220.15
5/14/13 25.5 082  43  6492  35  6240.18
5/15/13 25.5 084  59  7180  27  5330.20
5/16/13 22.0 082  59  7085  37  6320.17
5/17/13Incomplete records (27) were available today.
5/28/14Incomplete records (41) were available today.
5/29/14 17.9 0.0181  61  7292  51  7610.15
5/30/14 21.4 084  63  7392  44  7220.17
5/31/14 21.7 0.1288  63  7392  42  7520.18
6/1/14 17.0 082  66  7591  53  6730.14
6/2/14 21.5 081  66  7484  47  6230.18
6/3/14 14.9 084  66  7489  52  7520.13
6/4/14 19.7 086  68  7791  53  7330.17
6/5/14 7.3 0.9477  64  6892  77  8730.07
6/6/14 17.1 0.0182  63  7193  55  8100.14
6/7/14 19.3 0.2884  66  7391  52  7720.16
6/8/14 20.6 0.0181  63  7091  53  7630.16
6/9/14 9.9 0.7277  61  6891  67  8520.08
6/10/14 12.0 0.5577  64  6991  67  8430.10
6/11/14 14.3 0.3875  64  6991  66  8220.12
6/12/14 21.1 084  63  7293  48  7410.17
6/13/14 11.1 0.0975  59  6891  61  8320.09
6/14/14 26.6 082  55  6992  44  7020.20
6/15/14 23.0 088  61  7592  39  6920.19
6/16/14 26.6 090  63  7691  34  6620.22
6/17/14 24.6 090  66  7889  46  6920.21
6/18/14 22.0 090  66  7991  45  7020.19
6/19/14 22.1 091  68  7891  44  7320.19
6/20/14 23.2 090  68  7791  39  7220.19
6/21/14 22.8 091  66  7691  41  7120.19
6/22/14 25.3 090  66  7891  36  6810.21
6/23/14 22.6 088  68  7790  50  7320.19
6/24/14 17.1 0.5284  70  7691  51  7740.14
6/25/14 25.3 0.0188  66  7691  40  7130.21
6/26/14 14.4 082  64  7591  49  7510.12
6/27/14 19.4 0.2186  68  7591  50  7810.16
6/28/14 17.3 0.0582  70  7592  58  8010.15
6/29/14 11.5 0.4679  70  7391  71  8420.10
6/30/14 20.5 0.0188  68  7891  57  7620.17
7/1/14 23.4 090  68  7991  50  7130.20
7/2/14 22.6 086  66  7590  44  7020.19
7/3/14 21.6 079  61  7185  41  6330.17
7/4/14 27.7 079  54  6791  34  6330.21
7/5/14 26.4 086  50  7092  36  6520.20
7/6/14 26.2 088  59  7591  32  6420.21
7/7/14 23.3 088  63  7791  46  6730.19
7/8/14 15.1 0.6586  70  7691  53  7640.13
7/9/14 10.0 081  68  7391  68  8420.09
7/10/14 24.5 086  64  7592  35  6920.20
7/11/14 26.1 090  61  7592  29  6620.21
7/12/14 23.2 091  63  7891  35  6710.19
7/13/14 24.5 091  68  8191  40  6620.21
7/14/14 19.5 0.3691  68  7891  42  7530.17
7/15/14 22.3 0.0281  57  7192  40  6930.18
7/16/14 24.3 075  52  6591  38  6620.18
7/17/14 23.3 079  54  6792  33  6620.18
7/18/14 3.6 1.0566  63  6492  82  8910.04
7/19/14 11.3 0.9179  64  7193  67  8420.10
7/20/14 19.0 082  64  7491  50  7610.16
7/21/14 16.0 082  63  7492  59  7920.13
7/22/14 21.3 090  66  7892  47  7310.18
7/23/14 19.7 0.5988  70  7791  57  7820.17
7/24/14 20.4 081  63  7392  50  7720.17
7/25/14 24.0 082  59  7192  42  7110.19
7/26/14 24.7 088  61  7692  43  7020.20
7/27/14 22.3 091  73  8289  52  7050.19
7/28/14 21.2 081  63  7384  46  6230.17
7/29/14 25.2 075  55  6590  38  6530.18
7/30/14 21.8 079  52  6692  41  7220.16
7/31/14 17.6 082  57  6892  38  7410.14
8/1/14 20.4 084  57  7392  39  7110.17
8/2/14 18.9 086  64  7591  40  7120.16
8/3/14 23.3 086  61  7492  39  7020.19
8/4/14 24.2 086  61  7291  27  6420.19
8/5/14 19.9 088  57  7392  28  6510.16
8/6/14 21.1 091  64  7889  36  6520.18
8/7/14 18.8 0.5191  70  7792  37  7220.16
8/8/14 14.6 084  70  7592  57  8020.13
8/9/14 17.2 086  70  7891  57  7720.15
8/10/14 14.9 088  72  7891  48  7520.13
8/11/14 15.8 0.1586  70  7692  58  8220.14
8/12/14 20.8 086  59  7492  31  6920.17
8/13/14 22.2 079  54  6691  40  6930.17
8/14/14 21.0 082  52  6892  38  6920.16
8/15/14 21.2 084  57  7192  32  6720.17
8/16/14 23.0 088  59  7492  35  6620.19
8/17/14 6.5 0.3581  66  7390  64  8220.06
8/18/14 7.4 0.0581  70  7392  69  8610.07
8/19/14 17.1 086  70  7792  54  7920.15
8/20/14 17.8 0.0391  70  7691  50  7930.15
8/21/14 21.9 091  66  7992  41  7120.19
8/22/14 16.8 091  68  7991  43  7320.15
8/23/14 12.1 0.7390  70  7792  49  8110.11
8/24/14 20.3 0.0188  70  7892  54  7920.17
8/25/14 19.3 088  70  7891  49  7310.16
8/26/14 16.3 086  66  7591  46  7300.14
8/27/14 20.0 088  64  7692  42  7220.17
8/28/14 20.8 091  64  7892  37  7010.18
8/29/14 20.9 090  64  7792  29  6220.18
8/30/14 8.6 0.6886  66  7392  52  8010.08
8/31/14 9.9 0.0281  70  7591  69  8130.09
9/1/14 21.1 090  68  7991  40  7020.18
9/2/14 19.6 0.0290  68  7991  50  7330.17
9/3/14 12.0 084  68  7592  55  8010.11
9/4/14 16.8 088  66  7692  50  7810.14
9/5/14 19.9 088  68  7792  46  7520.17
9/6/14 15.0 0.0188  68  7692  51  7720.13
9/7/14 7.6 077  68  7184  70  8030.07
9/8/14 6.8 079  63  7091  64  8210.06
9/9/14 15.9 088  63  7593  43  7410.14
9/10/14 14.9 086  72  7886  53  7030.13
9/11/14 11.2 0.1184  70  7688  58  7530.10
9/12/14 7.9 075  64  6888  68  8140.07
9/13/14 5.5 066  55  6287  68  7840.05
9/14/14 17.9 077  52  6391  45  7420.13
9/15/14 13.5 082  52  6792  47  7610.11
9/16/14 7.5 073  57  6692  67  8220.07
9/17/14 13.9 073  54  6293  45  7420.10
9/18/14 15.3 079  57  6691  34  6820.12
9/19/14 15.9 086  55  7192  38  6820.13
9/20/14 18.0 086  63  7389  37  6620.15
9/21/14 13.4 086  55  7290  43  6430.11
9/22/14 19.9 073  46  6186  31  5930.14
9/23/14 20.2 077  41  5991  25  6320.14
9/24/14 18.9 081  45  6391  31  6520.14
9/25/14 18.7 082  48  6691  27  6420.14
9/26/14 14.0 084  55  6989  40  6920.11
9/27/14 11.0 081  57  6792  44  7220.09
9/28/14 10.2 081  57  6890  44  7110.09
9/29/14 16.4 084  55  6892  33  6720.13
9/30/14 15.1 086  54  6791  19  6110.12
10/1/14 16.0 088  52  6889  28  6310.13
10/2/14 13.0 0.0286  57  7489  34  5930.11
10/3/14 10.1 0.4877  46  6491  44  7340.08
10/4/14 16.4 061  34  4791  25  613--
10/5/14 16.1 073  32  5693  27  5430.10
10/6/14 9.2 0.3373  55  6391  46  7230.07
10/7/14 9.1 0.2077  59  6791  53  7930.08
10/8/14 14.6 0.1982  55  6793  21  6710.12
10/9/14 12.8 0.0682  55  6892  48  7710.10
10/10/14 2.3 0.0270  64  6793  84  9110.03
10/11/14 3.2 0.0266  57  6193  89  9220.03
10/12/14 6.5 0.0675  59  6594  73  8720.06
10/13/14 9.4 0.1081  63  6992  52  8050.08
10/14/14 9.1 0.0266  54  6191  57  7860.07
10/15/14 3.3 0.0157  52  5591  72  8340.03
10/16/14 4.6 0.1761  45  5292  60  8210.04
10/17/14 15.3 0.0679  45  6293  38  6930.11
10/18/14 12.7 0.0164  45  5491  45  7120.08
10/19/14 15.0 0.0264  39  5093  43  752--
10/20/14 9.4 0.0666  39  5294  51  7710.06
10/21/14 15.0 0.0372  41  5693  32  6520.10
10/22/14 15.3 0.0263  36  4893  43  723--
10/23/14 14.4 0.0264  34  4994  37  722--
10/24/14 14.5 0.0268  37  5293  29  7110.09
10/25/14 12.5 0.0377  39  5893  49  7820.09
10/26/14 12.5 0.0481  52  6393  41  7810.10
10/27/14 12.8 0.0684  55  6993  36  6620.11
10/28/14 8.1 0.0275  52  6492  57  7830.07
10/29/14 13.8 0.0266  39  5292  27  7230.08
10/30/14 13.9 0.0161  34  4694  36  732--
10/31/14 2.5 0.0152  39  4490  47  735--
11/1/14 7.5 046  27  3891  50  655--
11/2/14 13.9 0.0954  23  3793  25  692--
11/3/14 13.0 0.3168  30  4892  14  522--
11/4/14 11.7 070  45  5869  24  4130.09
11/5/14 0.8 1.6659  52  5593  51  8410.02
11/6/14 11.7 0.0163  43  5393  35  6650.07

 
Copyright ©2016 Biosystems Engineering & Soil Science · Webmaster · Disclaimer